sensor_id;sensor_type;location;lat;lon;timestamp;pressure;altitude;pressure_sealevel;temperature;humidity
57885;BME280;43703;51.060;-0.086;2023-02-17T00:00:37;100688.35;;;6.51;83.26
57885;BME280;43703;51.060;-0.086;2023-02-17T00:03:02;100696.18;;;6.55;84.66
57885;BME280;43703;51.060;-0.086;2023-02-17T00:05:29;100697.67;;;6.13;84.82
57885;BME280;43703;51.060;-0.086;2023-02-17T00:07:53;100697.87;;;6.96;83.70
57885;BME280;43703;51.060;-0.086;2023-02-17T00:10:18;100692.78;;;6.24;85.92
57885;BME280;43703;51.060;-0.086;2023-02-17T00:12:44;100691.47;;;7.24;82.75
57885;BME280;43703;51.060;-0.086;2023-02-17T00:15:10;100689.78;;;7.34;82.77
57885;BME280;43703;51.060;-0.086;2023-02-17T00:17:35;100688.49;;;6.97;84.45
57885;BME280;43703;51.060;-0.086;2023-02-17T00:20:00;100692.08;;;6.49;85.65
57885;BME280;43703;51.060;-0.086;2023-02-17T00:22:26;100692.18;;;6.84;85.45
57885;BME280;43703;51.060;-0.086;2023-02-17T00:24:51;100694.22;;;6.44;87.79
57885;BME280;43703;51.060;-0.086;2023-02-17T00:27:17;100698.26;;;6.42;86.79
57885;BME280;43703;51.060;-0.086;2023-02-17T00:29:42;100706.67;;;6.79;85.61
57885;BME280;43703;51.060;-0.086;2023-02-17T00:32:08;100706.17;;;6.99;84.16
57885;BME280;43703;51.060;-0.086;2023-02-17T00:34:34;100705.21;;;6.67;85.12
57885;BME280;43703;51.060;-0.086;2023-02-17T00:36:59;100702.88;;;6.81;85.49
57885;BME280;43703;51.060;-0.086;2023-02-17T00:39:24;100702.74;;;6.85;85.54
57885;BME280;43703;51.060;-0.086;2023-02-17T00:41:50;100697.41;;;7.13;84.96
57885;BME280;43703;51.060;-0.086;2023-02-17T00:44:16;100699.52;;;6.92;86.26
57885;BME280;43703;51.060;-0.086;2023-02-17T00:46:40;100698.61;;;6.80;84.70
57885;BME280;43703;51.060;-0.086;2023-02-17T00:49:05;100694.35;;;7.06;83.65
57885;BME280;43703;51.060;-0.086;2023-02-17T00:51:30;100695.18;;;7.60;81.20
57885;BME280;43703;51.060;-0.086;2023-02-17T00:53:56;100695.03;;;7.31;82.43
57885;BME280;43703;51.060;-0.086;2023-02-17T00:56:22;100692.49;;;7.61;82.23
57885;BME280;43703;51.060;-0.086;2023-02-17T00:58:47;100687.85;;;7.50;82.66
57885;BME280;43703;51.060;-0.086;2023-02-17T01:01:13;100687.01;;;7.58;80.92
57885;BME280;43703;51.060;-0.086;2023-02-17T01:03:38;100684.46;;;7.76;81.31
57885;BME280;43703;51.060;-0.086;2023-02-17T01:06:06;100684.94;;;7.64;80.48
57885;BME280;43703;51.060;-0.086;2023-02-17T01:08:28;100680.14;;;7.35;84.93
57885;BME280;43703;51.060;-0.086;2023-02-17T01:10:53;100681.29;;;7.50;82.97
57885;BME280;43703;51.060;-0.086;2023-02-17T01:13:20;100680.99;;;7.50;82.77
57885;BME280;43703;51.060;-0.086;2023-02-17T01:15:48;100684.29;;;6.39;87.44
57885;BME280;43703;51.060;-0.086;2023-02-17T01:18:10;100684.22;;;7.61;84.04
57885;BME280;43703;51.060;-0.086;2023-02-17T01:20:36;100674.64;;;7.70;81.92
57885;BME280;43703;51.060;-0.086;2023-02-17T01:23:01;100675.61;;;6.89;85.33
57885;BME280;43703;51.060;-0.086;2023-02-17T01:25:27;100680.86;;;6.81;85.30
57885;BME280;43703;51.060;-0.086;2023-02-17T01:27:52;100675.25;;;7.07;85.67
57885;BME280;43703;51.060;-0.086;2023-02-17T01:30:18;100675.05;;;6.70;86.20
57885;BME280;43703;51.060;-0.086;2023-02-17T01:32:43;100667.24;;;7.58;83.16
57885;BME280;43703;51.060;-0.086;2023-02-17T01:35:09;100666.25;;;7.80;82.15
57885;BME280;43703;51.060;-0.086;2023-02-17T01:37:34;100663.21;;;8.45;80.35
57885;BME280;43703;51.060;-0.086;2023-02-17T01:39:59;100660.59;;;8.36;80.48
57885;BME280;43703;51.060;-0.086;2023-02-17T01:42:25;100663.91;;;7.84;81.65
57885;BME280;43703;51.060;-0.086;2023-02-17T01:47:15;100666.33;;;7.93;81.55
57885;BME280;43703;51.060;-0.086;2023-02-17T01:49:41;100664.44;;;7.76;82.59
57885;BME280;43703;51.060;-0.086;2023-02-17T01:52:11;100663.33;;;8.08;81.34
57885;BME280;43703;51.060;-0.086;2023-02-17T01:54:36;100665.76;;;7.60;84.00
57885;BME280;43703;51.060;-0.086;2023-02-17T01:56:59;100657.36;;;7.66;83.37
57885;BME280;43703;51.060;-0.086;2023-02-17T01:59:23;100660.29;;;7.47;83.28
57885;BME280;43703;51.060;-0.086;2023-02-17T02:01:51;100659.98;;;6.48;87.66
57885;BME280;43703;51.060;-0.086;2023-02-17T02:04:16;100658.09;;;7.30;85.12
57885;BME280;43703;51.060;-0.086;2023-02-17T02:06:41;100654.20;;;7.76;84.80
57885;BME280;43703;51.060;-0.086;2023-02-17T02:09:10;100650.58;;;7.69;84.64
57885;BME280;43703;51.060;-0.086;2023-02-17T02:11:31;100654.59;;;6.80;88.17
57885;BME280;43703;51.060;-0.086;2023-02-17T02:13:56;100650.53;;;7.42;86.62
57885;BME280;43703;51.060;-0.086;2023-02-17T02:16:26;100648.89;;;6.81;88.96
57885;BME280;43703;51.060;-0.086;2023-02-17T02:18:53;100641.38;;;7.36;86.55
57885;BME280;43703;51.060;-0.086;2023-02-17T02:21:23;100634.13;;;7.91;84.41
57885;BME280;43703;51.060;-0.086;2023-02-17T02:23:51;100631.57;;;7.39;84.66
57885;BME280;43703;51.060;-0.086;2023-02-17T02:26:15;100632.22;;;8.07;84.33
57885;BME280;43703;51.060;-0.086;2023-02-17T02:28:38;100636.13;;;8.23;82.76
57885;BME280;43703;51.060;-0.086;2023-02-17T02:31:07;100633.42;;;7.19;86.66
57885;BME280;43703;51.060;-0.086;2023-02-17T02:33:25;100632.09;;;7.39;88.48
57885;BME280;43703;51.060;-0.086;2023-02-17T02:35:51;100630.85;;;6.96;91.22
57885;BME280;43703;51.060;-0.086;2023-02-17T02:38:18;100625.75;;;7.29;87.48
57885;BME280;43703;51.060;-0.086;2023-02-17T02:40:42;100626.86;;;7.10;89.04
57885;BME280;43703;51.060;-0.086;2023-02-17T02:43:03;100623.23;;;7.12;90.75
57885;BME280;43703;51.060;-0.086;2023-02-17T02:45:27;100620.78;;;7.06;91.22
57885;BME280;43703;51.060;-0.086;2023-02-17T02:47:53;100624.02;;;6.83;92.69
57885;BME280;43703;51.060;-0.086;2023-02-17T02:50:22;100617.40;;;6.89;90.99
57885;BME280;43703;51.060;-0.086;2023-02-17T02:52:51;100619.90;;;7.30;90.89
57885;BME280;43703;51.060;-0.086;2023-02-17T02:55:12;100625.88;;;6.76;93.58
57885;BME280;43703;51.060;-0.086;2023-02-17T02:57:39;100625.26;;;6.99;91.29
57885;BME280;43703;51.060;-0.086;2023-02-17T03:00:09;100627.03;;;7.83;89.28
57885;BME280;43703;51.060;-0.086;2023-02-17T03:02:29;100624.22;;;7.04;93.42
57885;BME280;43703;51.060;-0.086;2023-02-17T03:04:53;100625.81;;;6.76;92.21
57885;BME280;43703;51.060;-0.086;2023-02-17T03:07:18;100623.13;;;7.78;91.08
57885;BME280;43703;51.060;-0.086;2023-02-17T03:09:40;100620.57;;;7.19;91.49
57885;BME280;43703;51.060;-0.086;2023-02-17T03:12:06;100624.45;;;6.87;94.30
57885;BME280;43703;51.060;-0.086;2023-02-17T03:14:35;100626.78;;;6.34;96.63
57885;BME280;43703;51.060;-0.086;2023-02-17T03:16:57;100628.53;;;6.38;95.81
57885;BME280;43703;51.060;-0.086;2023-02-17T03:19:23;100627.42;;;6.90;94.27
57885;BME280;43703;51.060;-0.086;2023-02-17T03:21:50;100615.61;;;7.12;92.29
57885;BME280;43703;51.060;-0.086;2023-02-17T03:24:12;100624.04;;;7.45;91.89
57885;BME280;43703;51.060;-0.086;2023-02-17T03:26:38;100625.10;;;7.08;92.38
57885;BME280;43703;51.060;-0.086;2023-02-17T03:29:03;100623.91;;;7.09;93.45
57885;BME280;43703;51.060;-0.086;2023-02-17T03:31:29;100628.94;;;6.99;93.71
57885;BME280;43703;51.060;-0.086;2023-02-17T03:33:54;100629.02;;;7.00;92.75
57885;BME280;43703;51.060;-0.086;2023-02-17T03:36:19;100636.07;;;6.89;93.30
57885;BME280;43703;51.060;-0.086;2023-02-17T03:38:45;100642.17;;;7.00;93.61
57885;BME280;43703;51.060;-0.086;2023-02-17T03:41:10;100647.09;;;6.57;95.76
57885;BME280;43703;51.060;-0.086;2023-02-17T03:43:35;100641.85;;;6.81;95.12
57885;BME280;43703;51.060;-0.086;2023-02-17T03:46:01;100641.40;;;7.42;90.27
57885;BME280;43703;51.060;-0.086;2023-02-17T03:48:27;100642.95;;;6.97;92.58
57885;BME280;43703;51.060;-0.086;2023-02-17T03:50:51;100644.90;;;6.96;93.39
57885;BME280;43703;51.060;-0.086;2023-02-17T03:53:16;100641.70;;;6.91;91.73
57885;BME280;43703;51.060;-0.086;2023-02-17T03:55:41;100635.67;;;7.02;94.02
57885;BME280;43703;51.060;-0.086;2023-02-17T03:58:06;100630.97;;;7.07;95.15
57885;BME280;43703;51.060;-0.086;2023-02-17T04:00:32;100634.56;;;6.65;95.16
57885;BME280;43703;51.060;-0.086;2023-02-17T04:02:57;100639.76;;;6.99;95.84
57885;BME280;43703;51.060;-0.086;2023-02-17T04:05:22;100637.25;;;6.81;94.27
57885;BME280;43703;51.060;-0.086;2023-02-17T04:07:47;100645.29;;;7.43;92.15
57885;BME280;43703;51.060;-0.086;2023-02-17T04:10:13;100638.81;;;7.57;91.41
57885;BME280;43703;51.060;-0.086;2023-02-17T04:12:38;100634.81;;;7.11;92.61
57885;BME280;43703;51.060;-0.086;2023-02-17T04:15:04;100645.79;;;6.96;92.34
57885;BME280;43703;51.060;-0.086;2023-02-17T04:17:29;100638.76;;;7.47;91.20
57885;BME280;43703;51.060;-0.086;2023-02-17T04:19:54;100648.50;;;6.64;93.37
57885;BME280;43703;51.060;-0.086;2023-02-17T04:22:20;100650.88;;;6.74;93.19
57885;BME280;43703;51.060;-0.086;2023-02-17T04:24:45;100651.27;;;6.55;94.06
57885;BME280;43703;51.060;-0.086;2023-02-17T04:27:12;100654.12;;;6.94;93.09
57885;BME280;43703;51.060;-0.086;2023-02-17T04:29:36;100653.69;;;6.71;94.17
57885;BME280;43703;51.060;-0.086;2023-02-17T04:32:01;100658.40;;;6.64;93.27
57885;BME280;43703;51.060;-0.086;2023-02-17T04:34:27;100654.58;;;6.77;92.27
57885;BME280;43703;51.060;-0.086;2023-02-17T04:36:53;100652.07;;;7.63;89.85
57885;BME280;43703;51.060;-0.086;2023-02-17T04:39:18;100653.09;;;6.99;92.96
57885;BME280;43703;51.060;-0.086;2023-02-17T04:41:43;100644.82;;;7.46;88.59
57885;BME280;43703;51.060;-0.086;2023-02-17T04:44:08;100648.84;;;6.91;92.60
57885;BME280;43703;51.060;-0.086;2023-02-17T04:46:33;100645.60;;;6.59;94.63
57885;BME280;43703;51.060;-0.086;2023-02-17T04:48:58;100644.28;;;7.42;89.49
57885;BME280;43703;51.060;-0.086;2023-02-17T04:51:23;100642.95;;;7.56;90.06
57885;BME280;43703;51.060;-0.086;2023-02-17T04:53:48;100641.50;;;7.29;89.64
57885;BME280;43703;51.060;-0.086;2023-02-17T04:56:14;100637.10;;;7.46;89.55
57885;BME280;43703;51.060;-0.086;2023-02-17T04:58:40;100643.45;;;6.79;93.80
57885;BME280;43703;51.060;-0.086;2023-02-17T05:01:05;100641.82;;;7.39;89.21
57885;BME280;43703;51.060;-0.086;2023-02-17T05:03:30;100647.20;;;7.10;90.01
57885;BME280;43703;51.060;-0.086;2023-02-17T05:05:56;100648.44;;;6.85;91.48
57885;BME280;43703;51.060;-0.086;2023-02-17T05:08:21;100653.07;;;6.96;91.52
57885;BME280;43703;51.060;-0.086;2023-02-17T05:10:46;100651.26;;;7.73;90.20
57885;BME280;43703;51.060;-0.086;2023-02-17T05:13:11;100651.41;;;8.30;87.69
57885;BME280;43703;51.060;-0.086;2023-02-17T05:15:36;100655.21;;;7.34;89.73
57885;BME280;43703;51.060;-0.086;2023-02-17T05:18:02;100648.74;;;7.77;88.86
57885;BME280;43703;51.060;-0.086;2023-02-17T05:20:28;100647.66;;;6.98;91.33
57885;BME280;43703;51.060;-0.086;2023-02-17T05:22:53;100655.70;;;7.03;92.06
57885;BME280;43703;51.060;-0.086;2023-02-17T05:25:18;100656.11;;;7.98;87.16
57885;BME280;43703;51.060;-0.086;2023-02-17T05:27:44;100656.44;;;8.10;86.41
57885;BME280;43703;51.060;-0.086;2023-02-17T05:30:11;100656.87;;;7.66;88.61
57885;BME280;43703;51.060;-0.086;2023-02-17T05:32:34;100654.65;;;7.87;88.56
57885;BME280;43703;51.060;-0.086;2023-02-17T05:34:59;100660.69;;;6.84;92.43
57885;BME280;43703;51.060;-0.086;2023-02-17T05:37:26;100656.71;;;7.28;90.12
57885;BME280;43703;51.060;-0.086;2023-02-17T05:39:53;100653.98;;;7.79;88.78
57885;BME280;43703;51.060;-0.086;2023-02-17T05:42:15;100653.96;;;7.05;89.15
57885;BME280;43703;51.060;-0.086;2023-02-17T05:44:41;100652.79;;;7.04;89.82
57885;BME280;43703;51.060;-0.086;2023-02-17T05:47:07;100657.04;;;7.05;91.64
57885;BME280;43703;51.060;-0.086;2023-02-17T05:49:32;100657.06;;;7.53;91.27
57885;BME280;43703;51.060;-0.086;2023-02-17T05:51:57;100659.48;;;7.51;90.40
57885;BME280;43703;51.060;-0.086;2023-02-17T05:54:22;100655.04;;;7.26;88.88
57885;BME280;43703;51.060;-0.086;2023-02-17T05:56:49;100657.66;;;7.61;87.62
57885;BME280;43703;51.060;-0.086;2023-02-17T05:59:12;100655.69;;;7.43;88.86
57885;BME280;43703;51.060;-0.086;2023-02-17T06:01:37;100652.81;;;7.62;87.79
57885;BME280;43703;51.060;-0.086;2023-02-17T06:04:03;100654.43;;;7.50;89.08
57885;BME280;43703;51.060;-0.086;2023-02-17T06:06:27;100655.22;;;7.70;87.11
57885;BME280;43703;51.060;-0.086;2023-02-17T06:08:52;100657.90;;;8.16;85.44
57885;BME280;43703;51.060;-0.086;2023-02-17T06:11:18;100653.95;;;7.31;87.35
57885;BME280;43703;51.060;-0.086;2023-02-17T06:13:43;100649.91;;;7.03;89.10
57885;BME280;43703;51.060;-0.086;2023-02-17T06:16:09;100647.94;;;7.60;87.13
57885;BME280;43703;51.060;-0.086;2023-02-17T06:18:34;100642.45;;;6.79;89.02
57885;BME280;43703;51.060;-0.086;2023-02-17T06:20:59;100641.02;;;7.34;88.49
57885;BME280;43703;51.060;-0.086;2023-02-17T06:23:26;100640.71;;;7.10;88.58
57885;BME280;43703;51.060;-0.086;2023-02-17T06:25:50;100635.17;;;7.61;86.29
57885;BME280;43703;51.060;-0.086;2023-02-17T06:28:16;100633.67;;;7.42;86.47
57885;BME280;43703;51.060;-0.086;2023-02-17T06:30:41;100636.19;;;7.44;85.34
57885;BME280;43703;51.060;-0.086;2023-02-17T06:33:09;100634.28;;;7.36;87.02
57885;BME280;43703;51.060;-0.086;2023-02-17T06:35:31;100633.92;;;6.15;90.93
57885;BME280;43703;51.060;-0.086;2023-02-17T06:37:56;100639.42;;;7.14;90.77
57885;BME280;43703;51.060;-0.086;2023-02-17T06:40:21;100635.94;;;6.60;88.92
57885;BME280;43703;51.060;-0.086;2023-02-17T06:42:47;100643.78;;;6.57;88.31
57885;BME280;43703;51.060;-0.086;2023-02-17T06:45:12;100640.40;;;6.51;88.13
57885;BME280;43703;51.060;-0.086;2023-02-17T06:47:37;100638.80;;;6.38;88.50
57885;BME280;43703;51.060;-0.086;2023-02-17T06:50:04;100642.26;;;7.40;85.47
57885;BME280;43703;51.060;-0.086;2023-02-17T06:52:28;100646.46;;;6.75;87.38
57885;BME280;43703;51.060;-0.086;2023-02-17T06:54:54;100640.10;;;6.61;85.94
57885;BME280;43703;51.060;-0.086;2023-02-17T06:57:20;100639.43;;;7.10;86.20
57885;BME280;43703;51.060;-0.086;2023-02-17T06:59:46;100645.29;;;7.21;85.47
57885;BME280;43703;51.060;-0.086;2023-02-17T07:02:12;100645.66;;;8.29;82.11
57885;BME280;43703;51.060;-0.086;2023-02-17T07:04:38;100659.83;;;7.37;82.70
57885;BME280;43703;51.060;-0.086;2023-02-17T07:07:03;100651.19;;;7.31;82.58
57885;BME280;43703;51.060;-0.086;2023-02-17T07:09:29;100657.01;;;7.11;83.21
57885;BME280;43703;51.060;-0.086;2023-02-17T07:11:57;100654.16;;;7.32;82.18
57885;BME280;43703;51.060;-0.086;2023-02-17T07:14:21;100657.59;;;7.43;83.47
57885;BME280;43703;51.060;-0.086;2023-02-17T07:16:47;100662.08;;;7.85;80.49
57885;BME280;43703;51.060;-0.086;2023-02-17T07:19:13;100669.49;;;8.43;79.33
57885;BME280;43703;51.060;-0.086;2023-02-17T07:21:38;100666.70;;;7.38;84.15
57885;BME280;43703;51.060;-0.086;2023-02-17T07:24:04;100660.88;;;7.15;83.23
57885;BME280;43703;51.060;-0.086;2023-02-17T07:26:29;100661.55;;;7.77;82.16
57885;BME280;43703;51.060;-0.086;2023-02-17T07:28:55;100659.78;;;7.89;81.49
57885;BME280;43703;51.060;-0.086;2023-02-17T07:31:21;100657.29;;;7.29;82.78
57885;BME280;43703;51.060;-0.086;2023-02-17T07:33:47;100663.28;;;7.36;82.47
57885;BME280;43703;51.060;-0.086;2023-02-17T07:36:15;100657.74;;;6.94;85.04
57885;BME280;43703;51.060;-0.086;2023-02-17T07:38:39;100659.20;;;7.61;82.68
57885;BME280;43703;51.060;-0.086;2023-02-17T07:41:05;100655.63;;;7.72;83.62
57885;BME280;43703;51.060;-0.086;2023-02-17T07:43:30;100658.00;;;7.14;84.41
57885;BME280;43703;51.060;-0.086;2023-02-17T07:45:56;100663.42;;;6.90;85.79
57885;BME280;43703;51.060;-0.086;2023-02-17T07:48:22;100665.87;;;7.11;86.39
57885;BME280;43703;51.060;-0.086;2023-02-17T07:50:47;100668.73;;;7.13;85.77
57885;BME280;43703;51.060;-0.086;2023-02-17T07:53:13;100676.63;;;6.54;87.71
57885;BME280;43703;51.060;-0.086;2023-02-17T07:55:38;100667.27;;;7.29;85.97
57885;BME280;43703;51.060;-0.086;2023-02-17T07:58:03;100680.91;;;6.93;88.00
57885;BME280;43703;51.060;-0.086;2023-02-17T08:00:28;100692.02;;;6.87;87.29
57885;BME280;43703;51.060;-0.086;2023-02-17T08:02:53;100694.03;;;6.86;85.45
57885;BME280;43703;51.060;-0.086;2023-02-17T08:05:20;100697.91;;;7.24;84.81
57885;BME280;43703;51.060;-0.086;2023-02-17T08:07:43;100711.52;;;7.34;84.77
57885;BME280;43703;51.060;-0.086;2023-02-17T08:10:11;100716.04;;;7.66;83.49
57885;BME280;43703;51.060;-0.086;2023-02-17T08:12:34;100721.07;;;7.60;83.23
57885;BME280;43703;51.060;-0.086;2023-02-17T08:15:00;100722.82;;;7.40;83.64
57885;BME280;43703;51.060;-0.086;2023-02-17T08:17:25;100729.04;;;7.37;83.46
57885;BME280;43703;51.060;-0.086;2023-02-17T08:19:51;100731.20;;;7.38;84.43
57885;BME280;43703;51.060;-0.086;2023-02-17T08:22:16;100737.96;;;7.64;82.88
57885;BME280;43703;51.060;-0.086;2023-02-17T08:24:42;100734.50;;;8.03;82.61
57885;BME280;43703;51.060;-0.086;2023-02-17T08:27:08;100739.28;;;8.05;80.86
57885;BME280;43703;51.060;-0.086;2023-02-17T08:29:34;100753.07;;;8.27;78.93
57885;BME280;43703;51.060;-0.086;2023-02-17T08:31:59;100763.64;;;8.70;77.99
57885;BME280;43703;51.060;-0.086;2023-02-17T08:34:24;100773.31;;;7.59;80.00
57885;BME280;43703;51.060;-0.086;2023-02-17T08:36:50;100779.40;;;8.09;80.55
57885;BME280;43703;51.060;-0.086;2023-02-17T08:39:16;100786.56;;;7.55;82.02
57885;BME280;43703;51.060;-0.086;2023-02-17T08:41:40;100789.21;;;7.42;82.78
57885;BME280;43703;51.060;-0.086;2023-02-17T08:44:07;100796.03;;;6.85;85.47
57885;BME280;43703;51.060;-0.086;2023-02-17T08:46:33;100802.74;;;7.53;82.99
57885;BME280;43703;51.060;-0.086;2023-02-17T08:48:57;100809.08;;;6.75;85.61
57885;BME280;43703;51.060;-0.086;2023-02-17T08:51:23;100807.03;;;7.24;83.54
57885;BME280;43703;51.060;-0.086;2023-02-17T08:53:48;100801.10;;;7.04;84.20
57885;BME280;43703;51.060;-0.086;2023-02-17T08:56:13;100795.38;;;8.04;81.41
57885;BME280;43703;51.060;-0.086;2023-02-17T08:58:38;100786.37;;;7.59;80.86
57885;BME280;43703;51.060;-0.086;2023-02-17T09:01:03;100777.18;;;7.89;80.70
57885;BME280;43703;51.060;-0.086;2023-02-17T09:03:29;100765.89;;;8.63;78.02
57885;BME280;43703;51.060;-0.086;2023-02-17T09:05:55;100783.67;;;7.84;81.24
57885;BME280;43703;51.060;-0.086;2023-02-17T09:08:20;100789.77;;;7.89;80.52
57885;BME280;43703;51.060;-0.086;2023-02-17T09:10:45;100785.17;;;7.70;80.44
57885;BME280;43703;51.060;-0.086;2023-02-17T09:13:10;100800.14;;;7.24;82.91
57885;BME280;43703;51.060;-0.086;2023-02-17T09:15:34;100796.03;;;8.21;80.49
57885;BME280;43703;51.060;-0.086;2023-02-17T09:18:00;100792.00;;;7.24;82.46
57885;BME280;43703;51.060;-0.086;2023-02-17T09:20:25;100796.80;;;7.21;82.98
57885;BME280;43703;51.060;-0.086;2023-02-17T09:22:50;100789.78;;;7.68;81.81
57885;BME280;43703;51.060;-0.086;2023-02-17T09:25:15;100789.89;;;7.81;84.80
57885;BME280;43703;51.060;-0.086;2023-02-17T09:27:40;100791.95;;;7.45;83.48
57885;BME280;43703;51.060;-0.086;2023-02-17T09:30:07;100787.65;;;6.93;85.09
57885;BME280;43703;51.060;-0.086;2023-02-17T09:32:31;100791.55;;;7.10;84.52
57885;BME280;43703;51.060;-0.086;2023-02-17T09:34:57;100796.56;;;7.43;83.82
57885;BME280;43703;51.060;-0.086;2023-02-17T09:37:22;100796.58;;;7.27;84.55
57885;BME280;43703;51.060;-0.086;2023-02-17T09:39:47;100800.24;;;7.45;84.11
57885;BME280;43703;51.060;-0.086;2023-02-17T09:42:17;100792.65;;;7.27;84.32
57885;BME280;43703;51.060;-0.086;2023-02-17T09:44:40;100803.67;;;7.30;85.27
57885;BME280;43703;51.060;-0.086;2023-02-17T09:47:06;100811.82;;;7.01;85.61
57885;BME280;43703;51.060;-0.086;2023-02-17T09:49:33;100805.76;;;7.58;84.93
57885;BME280;43703;51.060;-0.086;2023-02-17T09:51:57;100804.54;;;7.11;85.21
57885;BME280;43703;51.060;-0.086;2023-02-17T09:54:20;100803.51;;;6.69;86.94
57885;BME280;43703;51.060;-0.086;2023-02-17T09:56:46;100808.27;;;7.37;86.29
57885;BME280;43703;51.060;-0.086;2023-02-17T09:59:14;100803.31;;;7.75;82.41
57885;BME280;43703;51.060;-0.086;2023-02-17T10:01:34;100804.73;;;7.72;82.00
57885;BME280;43703;51.060;-0.086;2023-02-17T10:04:04;100809.48;;;8.09;82.71
57885;BME280;43703;51.060;-0.086;2023-02-17T10:06:27;100811.56;;;7.73;81.91
57885;BME280;43703;51.060;-0.086;2023-02-17T10:08:52;100806.71;;;7.97;81.39
57885;BME280;43703;51.060;-0.086;2023-02-17T10:11:22;100823.48;;;7.91;82.70
57885;BME280;43703;51.060;-0.086;2023-02-17T10:13:43;100822.84;;;7.04;86.12
57885;BME280;43703;51.060;-0.086;2023-02-17T10:16:10;100814.31;;;7.49;83.40
57885;BME280;43703;51.060;-0.086;2023-02-17T10:18:34;100815.52;;;8.18;80.17
57885;BME280;43703;51.060;-0.086;2023-02-17T10:21:00;100811.07;;;8.09;81.95
57885;BME280;43703;51.060;-0.086;2023-02-17T10:23:22;100816.87;;;8.41;79.83
57885;BME280;43703;51.060;-0.086;2023-02-17T10:25:59;100807.03;;;7.83;82.17
57885;BME280;43703;51.060;-0.086;2023-02-17T10:28:16;100809.27;;;7.11;86.31
57885;BME280;43703;51.060;-0.086;2023-02-17T10:30:40;100805.26;;;7.32;83.55
57885;BME280;43703;51.060;-0.086;2023-02-17T10:33:09;100797.57;;;7.53;84.80
57885;BME280;43703;51.060;-0.086;2023-02-17T10:35:35;100795.82;;;7.84;84.00
57885;BME280;43703;51.060;-0.086;2023-02-17T10:37:56;100794.40;;;7.96;84.01
57885;BME280;43703;51.060;-0.086;2023-02-17T10:40:19;100790.94;;;7.69;85.93
57885;BME280;43703;51.060;-0.086;2023-02-17T10:42:42;100791.26;;;7.84;84.22
57885;BME280;43703;51.060;-0.086;2023-02-17T10:45:14;100780.00;;;8.78;79.96
57885;BME280;43703;51.060;-0.086;2023-02-17T10:47:35;100787.87;;;8.75;81.04
57885;BME280;43703;51.060;-0.086;2023-02-17T10:49:59;100775.46;;;8.89;79.53
57885;BME280;43703;51.060;-0.086;2023-02-17T10:52:31;100780.22;;;8.08;82.14
57885;BME280;43703;51.060;-0.086;2023-02-17T10:54:53;100785.36;;;8.23;83.68
57885;BME280;43703;51.060;-0.086;2023-02-17T10:57:16;100785.93;;;7.13;86.12
57885;BME280;43703;51.060;-0.086;2023-02-17T10:59:40;100793.01;;;8.04;84.53
57885;BME280;43703;51.060;-0.086;2023-02-17T11:02:14;100778.17;;;7.99;83.90
57885;BME280;43703;51.060;-0.086;2023-02-17T11:04:39;100782.79;;;8.22;82.21
57885;BME280;43703;51.060;-0.086;2023-02-17T11:06:57;100775.68;;;7.60;84.12
57885;BME280;43703;51.060;-0.086;2023-02-17T11:09:23;100776.34;;;8.58;81.14
57885;BME280;43703;51.060;-0.086;2023-02-17T11:11:51;100778.81;;;8.75;82.35
57885;BME280;43703;51.060;-0.086;2023-02-17T11:14:18;100781.63;;;8.72;82.33
57885;BME280;43703;51.060;-0.086;2023-02-17T11:16:39;100789.55;;;7.76;84.49
57885;BME280;43703;51.060;-0.086;2023-02-17T11:19:03;100785.97;;;8.07;82.33
57885;BME280;43703;51.060;-0.086;2023-02-17T11:21:29;100785.42;;;8.09;82.03
57885;BME280;43703;51.060;-0.086;2023-02-17T11:23:58;100788.49;;;8.35;81.08
57885;BME280;43703;51.060;-0.086;2023-02-17T11:26:23;100784.14;;;8.33;82.21
57885;BME280;43703;51.060;-0.086;2023-02-17T11:28:44;100783.66;;;8.11;83.62
57885;BME280;43703;51.060;-0.086;2023-02-17T11:33:37;100789.70;;;7.65;85.72
57885;BME280;43703;51.060;-0.086;2023-02-17T11:36:03;100782.04;;;8.37;84.05
57885;BME280;43703;51.060;-0.086;2023-02-17T11:38:32;100778.04;;;9.07;80.04
57885;BME280;43703;51.060;-0.086;2023-02-17T11:40:55;100779.09;;;7.76;85.94
57885;BME280;43703;51.060;-0.086;2023-02-17T11:43:17;100777.66;;;7.97;84.05
57885;BME280;43703;51.060;-0.086;2023-02-17T11:45:53;100779.43;;;7.83;83.42
57885;BME280;43703;51.060;-0.086;2023-02-17T11:48:24;100783.60;;;8.21;82.21
57885;BME280;43703;51.060;-0.086;2023-02-17T11:50:40;100788.74;;;7.37;86.49
57885;BME280;43703;51.060;-0.086;2023-02-17T11:53:07;100793.03;;;8.33;84.55
57885;BME280;43703;51.060;-0.086;2023-02-17T11:55:34;100790.15;;;8.49;83.46
57885;BME280;43703;51.060;-0.086;2023-02-17T11:58:03;100790.96;;;8.24;82.50
57885;BME280;43703;51.060;-0.086;2023-02-17T12:00:18;100797.12;;;8.48;82.15
57885;BME280;43703;51.060;-0.086;2023-02-17T12:05:19;100791.64;;;8.02;82.27
57885;BME280;43703;51.060;-0.086;2023-02-17T12:07:43;100793.07;;;7.88;83.92
57885;BME280;43703;51.060;-0.086;2023-02-17T12:10:03;100786.30;;;8.09;83.14
57885;BME280;43703;51.060;-0.086;2023-02-17T12:12:30;100784.58;;;8.65;81.77
57885;BME280;43703;51.060;-0.086;2023-02-17T12:17:19;100782.67;;;8.50;81.26
57885;BME280;43703;51.060;-0.086;2023-02-17T12:19:47;100785.05;;;7.94;83.52
57885;BME280;43703;51.060;-0.086;2023-02-17T12:22:16;100786.13;;;8.71;80.89
57885;BME280;43703;51.060;-0.086;2023-02-17T12:24:40;100781.76;;;8.21;82.74
57885;BME280;43703;51.060;-0.086;2023-02-17T12:27:05;100789.29;;;8.42;81.66
57885;BME280;43703;51.060;-0.086;2023-02-17T12:29:32;100783.85;;;8.71;80.62
57885;BME280;43703;51.060;-0.086;2023-02-17T12:31:59;100782.41;;;8.10;83.45
57885;BME280;43703;51.060;-0.086;2023-02-17T12:34:20;100789.52;;;8.67;81.61
57885;BME280;43703;51.060;-0.086;2023-02-17T12:36:41;100796.44;;;7.96;83.72
57885;BME280;43703;51.060;-0.086;2023-02-17T12:39:12;100796.49;;;8.33;81.65
57885;BME280;43703;51.060;-0.086;2023-02-17T12:41:35;100800.07;;;8.00;84.68
57885;BME280;43703;51.060;-0.086;2023-02-17T12:44:03;100805.11;;;8.99;80.69
57885;BME280;43703;51.060;-0.086;2023-02-17T12:46:27;100811.81;;;8.53;81.98
57885;BME280;43703;51.060;-0.086;2023-02-17T12:48:54;100822.16;;;7.74;84.62